sensor_id;sensor_type;location;lat;lon;timestamp;P1;durP1;ratioP1;P2;durP2;ratioP2
51800;SDS011;37855;53.204;6.568;2023-05-23T00:01:56;35.30;;;14.40;;
51800;SDS011;37855;53.204;6.568;2023-05-23T00:04:22;35.30;;;13.73;;
51800;SDS011;37855;53.204;6.568;2023-05-23T00:06:51;37.42;;;14.35;;
51800;SDS011;37855;53.204;6.568;2023-05-23T00:09:17;30.45;;;13.35;;
51800;SDS011;37855;53.204;6.568;2023-05-23T00:11:43;34.15;;;13.73;;
51800;SDS011;37855;53.204;6.568;2023-05-23T00:14:13;30.90;;;12.57;;
51800;SDS011;37855;53.204;6.568;2023-05-23T00:16:42;31.35;;;13.43;;
51800;SDS011;37855;53.204;6.568;2023-05-23T00:19:09;32.70;;;14.68;;
51800;SDS011;37855;53.204;6.568;2023-05-23T00:21:38;38.92;;;15.10;;
51800;SDS011;37855;53.204;6.568;2023-05-23T00:24:05;28.17;;;13.32;;
51800;SDS011;37855;53.204;6.568;2023-05-23T00:26:31;27.00;;;10.73;;
51800;SDS011;37855;53.204;6.568;2023-05-23T00:28:58;27.08;;;11.95;;
51800;SDS011;37855;53.204;6.568;2023-05-23T00:31:24;30.48;;;12.93;;
51800;SDS011;37855;53.204;6.568;2023-05-23T00:33:49;30.90;;;13.00;;
51800;SDS011;37855;53.204;6.568;2023-05-23T00:36:15;27.85;;;12.82;;
51800;SDS011;37855;53.204;6.568;2023-05-23T00:38:45;21.67;;;12.02;;
51800;SDS011;37855;53.204;6.568;2023-05-23T00:41:11;27.27;;;12.90;;
51800;SDS011;37855;53.204;6.568;2023-05-23T00:43:36;27.00;;;13.18;;
51800;SDS011;37855;53.204;6.568;2023-05-23T00:46:02;25.03;;;13.80;;
51800;SDS011;37855;53.204;6.568;2023-05-23T00:48:28;24.10;;;13.05;;
51800;SDS011;37855;53.204;6.568;2023-05-23T00:50:55;25.52;;;13.27;;
51800;SDS011;37855;53.204;6.568;2023-05-23T00:53:21;26.97;;;12.60;;
51800;SDS011;37855;53.204;6.568;2023-05-23T00:55:48;19.63;;;11.82;;
51800;SDS011;37855;53.204;6.568;2023-05-23T00:58:14;18.40;;;11.10;;
51800;SDS011;37855;53.204;6.568;2023-05-23T01:00:41;23.50;;;10.18;;
51800;SDS011;37855;53.204;6.568;2023-05-23T01:03:09;19.90;;;10.02;;
51800;SDS011;37855;53.204;6.568;2023-05-23T01:05:41;21.33;;;10.23;;
51800;SDS011;37855;53.204;6.568;2023-05-23T01:08:10;21.98;;;10.00;;
51800;SDS011;37855;53.204;6.568;2023-05-23T01:10:37;17.90;;;8.88;;
51800;SDS011;37855;53.204;6.568;2023-05-23T01:16:04;16.95;;;7.47;;
51800;SDS011;37855;53.204;6.568;2023-05-23T01:21:22;15.98;;;7.75;;
51800;SDS011;37855;53.204;6.568;2023-05-23T01:29:28;16.60;;;8.02;;
51800;SDS011;37855;53.204;6.568;2023-05-23T01:31:58;28.00;;;9.32;;
51800;SDS011;37855;53.204;6.568;2023-05-23T01:34:25;19.67;;;7.65;;
51800;SDS011;37855;53.204;6.568;2023-05-23T01:36:53;18.73;;;7.90;;
51800;SDS011;37855;53.204;6.568;2023-05-23T01:39:21;22.87;;;8.43;;
51800;SDS011;37855;53.204;6.568;2023-05-23T01:41:47;23.05;;;8.90;;
51800;SDS011;37855;53.204;6.568;2023-05-23T01:44:14;22.25;;;8.90;;
51800;SDS011;37855;53.204;6.568;2023-05-23T01:46:40;23.05;;;8.63;;
51800;SDS011;37855;53.204;6.568;2023-05-23T01:49:11;24.83;;;8.75;;
51800;SDS011;37855;53.204;6.568;2023-05-23T01:51:39;20.20;;;8.20;;
51800;SDS011;37855;53.204;6.568;2023-05-23T01:54:05;24.30;;;8.57;;
51800;SDS011;37855;53.204;6.568;2023-05-23T01:56:34;26.52;;;8.48;;
51800;SDS011;37855;53.204;6.568;2023-05-23T01:59:00;21.77;;;8.45;;
51800;SDS011;37855;53.204;6.568;2023-05-23T02:01:26;17.73;;;7.50;;
51800;SDS011;37855;53.204;6.568;2023-05-23T02:03:55;32.45;;;9.57;;
51800;SDS011;37855;53.204;6.568;2023-05-23T02:06:21;28.30;;;9.38;;
51800;SDS011;37855;53.204;6.568;2023-05-23T02:08:47;23.60;;;8.67;;
51800;SDS011;37855;53.204;6.568;2023-05-23T02:11:16;24.33;;;8.57;;
51800;SDS011;37855;53.204;6.568;2023-05-23T02:13:41;31.77;;;8.32;;
51800;SDS011;37855;53.204;6.568;2023-05-23T02:16:07;28.87;;;8.03;;
51800;SDS011;37855;53.204;6.568;2023-05-23T02:18:33;23.05;;;7.75;;
51800;SDS011;37855;53.204;6.568;2023-05-23T02:21:02;27.37;;;7.83;;
51800;SDS011;37855;53.204;6.568;2023-05-23T02:23:30;17.75;;;7.13;;
51800;SDS011;37855;53.204;6.568;2023-05-23T02:25:56;22.20;;;7.90;;
51800;SDS011;37855;53.204;6.568;2023-05-23T02:28:22;20.73;;;7.00;;
51800;SDS011;37855;53.204;6.568;2023-05-23T02:30:48;20.45;;;6.78;;
51800;SDS011;37855;53.204;6.568;2023-05-23T02:33:13;20.57;;;7.53;;
51800;SDS011;37855;53.204;6.568;2023-05-23T02:35:43;23.00;;;7.75;;
51800;SDS011;37855;53.204;6.568;2023-05-23T02:38:09;23.27;;;7.30;;
51800;SDS011;37855;53.204;6.568;2023-05-23T02:40:35;21.27;;;7.30;;
51800;SDS011;37855;53.204;6.568;2023-05-23T02:43:00;22.57;;;7.27;;
51800;SDS011;37855;53.204;6.568;2023-05-23T02:45:29;22.92;;;6.20;;
51800;SDS011;37855;53.204;6.568;2023-05-23T02:47:58;24.40;;;8.35;;
51800;SDS011;37855;53.204;6.568;2023-05-23T02:50:24;22.37;;;7.13;;
51800;SDS011;37855;53.204;6.568;2023-05-23T02:52:50;20.02;;;6.18;;
51800;SDS011;37855;53.204;6.568;2023-05-23T02:55:15;26.33;;;6.97;;
51800;SDS011;37855;53.204;6.568;2023-05-23T02:57:41;25.03;;;6.77;;
51800;SDS011;37855;53.204;6.568;2023-05-23T03:00:07;19.88;;;6.95;;
51800;SDS011;37855;53.204;6.568;2023-05-23T03:02:37;23.90;;;6.45;;
51800;SDS011;37855;53.204;6.568;2023-05-23T03:05:03;21.33;;;6.33;;
51800;SDS011;37855;53.204;6.568;2023-05-23T03:07:30;18.60;;;6.43;;
51800;SDS011;37855;53.204;6.568;2023-05-23T03:09:58;24.20;;;7.78;;
51800;SDS011;37855;53.204;6.568;2023-05-23T03:12:25;24.90;;;7.83;;
51800;SDS011;37855;53.204;6.568;2023-05-23T03:14:51;16.70;;;6.57;;
51800;SDS011;37855;53.204;6.568;2023-05-23T03:17:17;23.38;;;7.32;;
51800;SDS011;37855;53.204;6.568;2023-05-23T03:19:43;24.37;;;6.93;;
51800;SDS011;37855;53.204;6.568;2023-05-23T03:22:11;21.38;;;6.22;;
51800;SDS011;37855;53.204;6.568;2023-05-23T03:24:37;23.63;;;7.47;;
51800;SDS011;37855;53.204;6.568;2023-05-23T03:27:02;18.90;;;5.88;;
51800;SDS011;37855;53.204;6.568;2023-05-23T03:29:28;19.67;;;5.80;;
51800;SDS011;37855;53.204;6.568;2023-05-23T03:31:54;18.95;;;5.35;;
51800;SDS011;37855;53.204;6.568;2023-05-23T03:34:23;20.17;;;5.80;;
51800;SDS011;37855;53.204;6.568;2023-05-23T03:36:50;19.37;;;5.23;;
51800;SDS011;37855;53.204;6.568;2023-05-23T03:39:16;18.30;;;5.68;;
51800;SDS011;37855;53.204;6.568;2023-05-23T03:41:42;20.95;;;6.13;;
51800;SDS011;37855;53.204;6.568;2023-05-23T03:44:07;20.10;;;5.80;;
51800;SDS011;37855;53.204;6.568;2023-05-23T03:46:33;18.02;;;5.22;;
51800;SDS011;37855;53.204;6.568;2023-05-23T03:49:00;18.60;;;5.20;;
51800;SDS011;37855;53.204;6.568;2023-05-23T03:51:25;20.38;;;5.30;;
51800;SDS011;37855;53.204;6.568;2023-05-23T03:53:52;18.67;;;5.28;;
51800;SDS011;37855;53.204;6.568;2023-05-23T03:56:18;19.00;;;5.40;;
51800;SDS011;37855;53.204;6.568;2023-05-23T03:58:43;22.33;;;5.65;;
51800;SDS011;37855;53.204;6.568;2023-05-23T04:01:10;17.03;;;5.17;;
51800;SDS011;37855;53.204;6.568;2023-05-23T04:03:35;16.65;;;5.18;;
51800;SDS011;37855;53.204;6.568;2023-05-23T04:06:01;20.00;;;4.87;;
51800;SDS011;37855;53.204;6.568;2023-05-23T04:08:27;19.80;;;5.90;;
51800;SDS011;37855;53.204;6.568;2023-05-23T04:10:56;17.40;;;5.53;;
51800;SDS011;37855;53.204;6.568;2023-05-23T04:13:21;15.00;;;4.85;;
51800;SDS011;37855;53.204;6.568;2023-05-23T04:15:48;18.37;;;4.93;;
51800;SDS011;37855;53.204;6.568;2023-05-23T04:18:16;20.40;;;4.85;;
51800;SDS011;37855;53.204;6.568;2023-05-23T04:20:41;13.50;;;4.65;;
51800;SDS011;37855;53.204;6.568;2023-05-23T04:23:07;17.60;;;4.57;;
51800;SDS011;37855;53.204;6.568;2023-05-23T04:25:33;14.93;;;4.13;;
51800;SDS011;37855;53.204;6.568;2023-05-23T04:27:59;13.77;;;3.47;;
51800;SDS011;37855;53.204;6.568;2023-05-23T04:30:25;19.08;;;4.47;;
51800;SDS011;37855;53.204;6.568;2023-05-23T04:32:51;15.32;;;3.72;;
51800;SDS011;37855;53.204;6.568;2023-05-23T04:35:18;14.80;;;4.10;;
51800;SDS011;37855;53.204;6.568;2023-05-23T04:37:44;13.32;;;3.60;;
51800;SDS011;37855;53.204;6.568;2023-05-23T04:40:11;16.98;;;3.92;;
51800;SDS011;37855;53.204;6.568;2023-05-23T04:42:37;13.30;;;4.25;;
51800;SDS011;37855;53.204;6.568;2023-05-23T04:45:06;18.60;;;4.57;;
51800;SDS011;37855;53.204;6.568;2023-05-23T04:47:33;16.37;;;4.50;;
51800;SDS011;37855;53.204;6.568;2023-05-23T04:49:59;18.70;;;4.47;;
51800;SDS011;37855;53.204;6.568;2023-05-23T04:52:26;14.35;;;4.38;;
51800;SDS011;37855;53.204;6.568;2023-05-23T04:54:52;20.10;;;5.43;;
51800;SDS011;37855;53.204;6.568;2023-05-23T04:57:18;17.90;;;5.63;;
51800;SDS011;37855;53.204;6.568;2023-05-23T04:59:43;19.55;;;5.43;;
51800;SDS011;37855;53.204;6.568;2023-05-23T05:02:10;22.73;;;6.23;;
51800;SDS011;37855;53.204;6.568;2023-05-23T05:04:36;17.42;;;5.90;;
51800;SDS011;37855;53.204;6.568;2023-05-23T05:07:01;20.23;;;6.07;;
51800;SDS011;37855;53.204;6.568;2023-05-23T05:09:27;26.33;;;7.03;;
51800;SDS011;37855;53.204;6.568;2023-05-23T05:11:54;19.08;;;7.20;;
51800;SDS011;37855;53.204;6.568;2023-05-23T05:14:19;23.27;;;6.90;;
51800;SDS011;37855;53.204;6.568;2023-05-23T05:16:45;15.32;;;6.22;;
51800;SDS011;37855;53.204;6.568;2023-05-23T05:19:12;19.33;;;6.85;;
51800;SDS011;37855;53.204;6.568;2023-05-23T05:21:38;22.07;;;6.50;;
51800;SDS011;37855;53.204;6.568;2023-05-23T05:24:04;22.05;;;5.90;;
51800;SDS011;37855;53.204;6.568;2023-05-23T05:26:33;14.50;;;5.43;;
51800;SDS011;37855;53.204;6.568;2023-05-23T05:29:00;15.98;;;6.05;;
51800;SDS011;37855;53.204;6.568;2023-05-23T05:31:26;17.13;;;6.15;;
51800;SDS011;37855;53.204;6.568;2023-05-23T05:33:53;14.10;;;5.13;;
51800;SDS011;37855;53.204;6.568;2023-05-23T05:36:19;17.00;;;4.88;;
51800;SDS011;37855;53.204;6.568;2023-05-23T05:38:45;20.67;;;5.90;;
51800;SDS011;37855;53.204;6.568;2023-05-23T05:41:12;19.05;;;5.40;;
51800;SDS011;37855;53.204;6.568;2023-05-23T05:43:39;14.00;;;5.18;;
51800;SDS011;37855;53.204;6.568;2023-05-23T05:46:04;20.37;;;5.50;;
51800;SDS011;37855;53.204;6.568;2023-05-23T05:48:30;15.25;;;5.07;;
51800;SDS011;37855;53.204;6.568;2023-05-23T05:50:57;14.50;;;4.47;;
51800;SDS011;37855;53.204;6.568;2023-05-23T05:53:25;13.85;;;3.78;;
51800;SDS011;37855;53.204;6.568;2023-05-23T05:55:52;12.93;;;3.95;;
51800;SDS011;37855;53.204;6.568;2023-05-23T06:00:54;11.77;;;3.90;;
51800;SDS011;37855;53.204;6.568;2023-05-23T06:03:20;12.07;;;3.85;;
51800;SDS011;37855;53.204;6.568;2023-05-23T06:05:45;12.98;;;4.20;;
51800;SDS011;37855;53.204;6.568;2023-05-23T06:08:12;16.20;;;4.13;;
51800;SDS011;37855;53.204;6.568;2023-05-23T06:10:38;11.70;;;4.22;;
51800;SDS011;37855;53.204;6.568;2023-05-23T06:13:03;13.90;;;3.90;;
51800;SDS011;37855;53.204;6.568;2023-05-23T06:15:29;12.15;;;3.15;;
51800;SDS011;37855;53.204;6.568;2023-05-23T06:17:55;13.73;;;3.83;;
51800;SDS011;37855;53.204;6.568;2023-05-23T06:20:20;18.85;;;4.05;;
51800;SDS011;37855;53.204;6.568;2023-05-23T06:22:46;15.87;;;3.87;;
51800;SDS011;37855;53.204;6.568;2023-05-23T06:25:11;16.33;;;3.83;;
51800;SDS011;37855;53.204;6.568;2023-05-23T06:27:37;17.47;;;3.90;;
51800;SDS011;37855;53.204;6.568;2023-05-23T06:30:03;18.33;;;4.30;;
51800;SDS011;37855;53.204;6.568;2023-05-23T06:32:29;15.77;;;3.50;;
51800;SDS011;37855;53.204;6.568;2023-05-23T06:34:55;10.10;;;3.35;;
51800;SDS011;37855;53.204;6.568;2023-05-23T06:37:20;19.47;;;4.20;;
51800;SDS011;37855;53.204;6.568;2023-05-23T06:39:46;15.65;;;3.95;;
51800;SDS011;37855;53.204;6.568;2023-05-23T06:42:13;15.83;;;3.30;;
51800;SDS011;37855;53.204;6.568;2023-05-23T06:44:39;17.73;;;3.80;;
51800;SDS011;37855;53.204;6.568;2023-05-23T06:47:05;20.87;;;3.97;;
51800;SDS011;37855;53.204;6.568;2023-05-23T06:49:30;12.75;;;3.35;;
51800;SDS011;37855;53.204;6.568;2023-05-23T06:51:56;20.90;;;3.63;;
51800;SDS011;37855;53.204;6.568;2023-05-23T06:54:22;15.02;;;3.28;;
51800;SDS011;37855;53.204;6.568;2023-05-23T06:56:47;21.07;;;4.10;;
51800;SDS011;37855;53.204;6.568;2023-05-23T06:59:13;17.98;;;3.78;;
51800;SDS011;37855;53.204;6.568;2023-05-23T07:01:39;16.53;;;3.47;;
51800;SDS011;37855;53.204;6.568;2023-05-23T07:04:04;13.68;;;3.55;;
51800;SDS011;37855;53.204;6.568;2023-05-23T07:06:30;24.83;;;3.80;;
51800;SDS011;37855;53.204;6.568;2023-05-23T07:08:56;21.07;;;3.60;;
51800;SDS011;37855;53.204;6.568;2023-05-23T07:11:22;19.02;;;3.45;;
51800;SDS011;37855;53.204;6.568;2023-05-23T07:13:48;20.23;;;3.67;;
51800;SDS011;37855;53.204;6.568;2023-05-23T07:16:14;20.73;;;4.10;;
51800;SDS011;37855;53.204;6.568;2023-05-23T07:18:39;22.17;;;4.10;;
51800;SDS011;37855;53.204;6.568;2023-05-23T07:21:05;22.97;;;4.50;;
51800;SDS011;37855;53.204;6.568;2023-05-23T07:23:31;19.52;;;3.40;;
51800;SDS011;37855;53.204;6.568;2023-05-23T07:25:58;15.27;;;4.00;;
51800;SDS011;37855;53.204;6.568;2023-05-23T07:28:24;19.80;;;3.15;;
51800;SDS011;37855;53.204;6.568;2023-05-23T07:30:50;22.40;;;3.47;;
51800;SDS011;37855;53.204;6.568;2023-05-23T07:33:16;16.48;;;3.55;;
51800;SDS011;37855;53.204;6.568;2023-05-23T07:35:42;15.97;;;3.03;;
51800;SDS011;37855;53.204;6.568;2023-05-23T07:38:08;22.08;;;3.38;;
51800;SDS011;37855;53.204;6.568;2023-05-23T07:40:34;17.67;;;3.13;;
51800;SDS011;37855;53.204;6.568;2023-05-23T07:43:01;14.90;;;3.03;;
51800;SDS011;37855;53.204;6.568;2023-05-23T07:45:27;17.15;;;3.17;;
51800;SDS011;37855;53.204;6.568;2023-05-23T07:47:54;14.65;;;3.25;;
51800;SDS011;37855;53.204;6.568;2023-05-23T07:50:20;17.83;;;3.50;;
51800;SDS011;37855;53.204;6.568;2023-05-23T07:52:46;11.63;;;2.70;;
51800;SDS011;37855;53.204;6.568;2023-05-23T07:55:15;14.73;;;3.20;;
51800;SDS011;37855;53.204;6.568;2023-05-23T07:57:41;17.20;;;3.08;;
51800;SDS011;37855;53.204;6.568;2023-05-23T08:00:06;17.70;;;3.73;;
51800;SDS011;37855;53.204;6.568;2023-05-23T08:02:34;18.00;;;3.42;;
51800;SDS011;37855;53.204;6.568;2023-05-23T08:04:59;19.48;;;3.13;;
51800;SDS011;37855;53.204;6.568;2023-05-23T08:07:25;16.63;;;3.27;;
51800;SDS011;37855;53.204;6.568;2023-05-23T08:09:51;15.80;;;3.35;;
51800;SDS011;37855;53.204;6.568;2023-05-23T08:12:17;16.13;;;4.10;;
51800;SDS011;37855;53.204;6.568;2023-05-23T08:18:40;18.75;;;3.55;;
51800;SDS011;37855;53.204;6.568;2023-05-23T08:21:12;15.55;;;3.10;;
51800;SDS011;37855;53.204;6.568;2023-05-23T08:23:38;19.73;;;3.53;;
51800;SDS011;37855;53.204;6.568;2023-05-23T08:26:04;21.98;;;4.25;;
51800;SDS011;37855;53.204;6.568;2023-05-23T08:28:30;28.98;;;3.80;;
51800;SDS011;37855;53.204;6.568;2023-05-23T08:30:58;12.65;;;2.88;;
51800;SDS011;37855;53.204;6.568;2023-05-23T08:33:30;16.08;;;3.33;;
51800;SDS011;37855;53.204;6.568;2023-05-23T08:35:56;14.43;;;3.23;;
51800;SDS011;37855;53.204;6.568;2023-05-23T08:38:33;17.20;;;3.20;;
51800;SDS011;37855;53.204;6.568;2023-05-23T08:41:02;22.30;;;3.53;;
51800;SDS011;37855;53.204;6.568;2023-05-23T08:43:37;19.10;;;3.40;;
51800;SDS011;37855;53.204;6.568;2023-05-23T08:46:03;13.10;;;3.03;;
51800;SDS011;37855;53.204;6.568;2023-05-23T08:48:29;20.52;;;3.33;;
51800;SDS011;37855;53.204;6.568;2023-05-23T08:50:55;21.00;;;3.20;;
51800;SDS011;37855;53.204;6.568;2023-05-23T08:53:22;16.00;;;3.85;;
51800;SDS011;37855;53.204;6.568;2023-05-23T08:55:51;21.97;;;4.03;;
51800;SDS011;37855;53.204;6.568;2023-05-23T08:58:20;22.17;;;3.60;;
51800;SDS011;37855;53.204;6.568;2023-05-23T09:00:55;14.48;;;2.83;;
51800;SDS011;37855;53.204;6.568;2023-05-23T09:03:21;13.88;;;2.80;;
51800;SDS011;37855;53.204;6.568;2023-05-23T09:05:48;21.50;;;3.30;;
51800;SDS011;37855;53.204;6.568;2023-05-23T09:08:14;13.32;;;3.10;;
51800;SDS011;37855;53.204;6.568;2023-05-23T09:10:41;16.63;;;3.30;;
51800;SDS011;37855;53.204;6.568;2023-05-23T09:13:06;17.73;;;3.70;;
51800;SDS011;37855;53.204;6.568;2023-05-23T09:15:34;21.05;;;3.58;;
51800;SDS011;37855;53.204;6.568;2023-05-23T09:17:59;18.67;;;3.10;;
51800;SDS011;37855;53.204;6.568;2023-05-23T09:20:26;17.77;;;3.78;;
51800;SDS011;37855;53.204;6.568;2023-05-23T09:22:53;15.63;;;2.90;;
51800;SDS011;37855;53.204;6.568;2023-05-23T09:25:19;17.88;;;3.25;;
51800;SDS011;37855;53.204;6.568;2023-05-23T09:27:45;16.93;;;2.80;;
51800;SDS011;37855;53.204;6.568;2023-05-23T09:30:12;13.32;;;3.17;;
51800;SDS011;37855;53.204;6.568;2023-05-23T09:32:38;17.27;;;3.05;;
51800;SDS011;37855;53.204;6.568;2023-05-23T09:35:22;16.27;;;3.00;;
51800;SDS011;37855;53.204;6.568;2023-05-23T09:37:48;16.17;;;2.70;;
51800;SDS011;37855;53.204;6.568;2023-05-23T09:40:13;15.88;;;2.95;;
51800;SDS011;37855;53.204;6.568;2023-05-23T09:42:43;18.43;;;3.30;;
51800;SDS011;37855;53.204;6.568;2023-05-23T09:45:10;13.63;;;2.60;;
51800;SDS011;37855;53.204;6.568;2023-05-23T09:47:52;16.73;;;2.92;;
51800;SDS011;37855;53.204;6.568;2023-05-23T09:50:21;12.13;;;2.47;;
51800;SDS011;37855;53.204;6.568;2023-05-23T09:52:48;13.13;;;2.58;;
51800;SDS011;37855;53.204;6.568;2023-05-23T09:55:15;15.37;;;3.03;;
51800;SDS011;37855;53.204;6.568;2023-05-23T09:57:41;14.38;;;2.95;;
51800;SDS011;37855;53.204;6.568;2023-05-23T10:00:08;15.50;;;3.45;;
51800;SDS011;37855;53.204;6.568;2023-05-23T10:02:54;15.75;;;3.10;;
51800;SDS011;37855;53.204;6.568;2023-05-23T10:08:44;13.63;;;2.73;;
51800;SDS011;37855;53.204;6.568;2023-05-23T10:13:51;18.40;;;3.15;;
51800;SDS011;37855;53.204;6.568;2023-05-23T10:19:12;15.60;;;2.80;;
51800;SDS011;37855;53.204;6.568;2023-05-23T10:22:06;10.47;;;2.67;;
51800;SDS011;37855;53.204;6.568;2023-05-23T10:24:34;15.40;;;3.13;;
51800;SDS011;37855;53.204;6.568;2023-05-23T10:27:01;17.17;;;3.85;;
51800;SDS011;37855;53.204;6.568;2023-05-23T10:29:28;22.70;;;3.78;;
51800;SDS011;37855;53.204;6.568;2023-05-23T10:31:54;18.65;;;3.40;;
51800;SDS011;37855;53.204;6.568;2023-05-23T10:42:33;17.23;;;3.22;;
51800;SDS011;37855;53.204;6.568;2023-05-23T10:45:17;17.08;;;3.13;;
51800;SDS011;37855;53.204;6.568;2023-05-23T10:47:48;11.83;;;2.70;;
51800;SDS011;37855;53.204;6.568;2023-05-23T10:50:34;14.82;;;3.40;;
51800;SDS011;37855;53.204;6.568;2023-05-23T10:53:05;12.07;;;2.50;;
51800;SDS011;37855;53.204;6.568;2023-05-23T10:55:33;13.30;;;2.63;;
51800;SDS011;37855;53.204;6.568;2023-05-23T10:58:17;12.87;;;2.60;;
51800;SDS011;37855;53.204;6.568;2023-05-23T11:00:52;18.35;;;2.70;;
51800;SDS011;37855;53.204;6.568;2023-05-23T11:03:29;15.15;;;2.50;;
51800;SDS011;37855;53.204;6.568;2023-05-23T11:06:02;14.88;;;2.80;;
51800;SDS011;37855;53.204;6.568;2023-05-23T11:08:35;17.60;;;2.97;;
51800;SDS011;37855;53.204;6.568;2023-05-23T11:11:06;18.00;;;3.40;;
51800;SDS011;37855;53.204;6.568;2023-05-23T11:16:29;15.88;;;3.03;;
51800;SDS011;37855;53.204;6.568;2023-05-23T11:21:44;17.60;;;2.92;;
51800;SDS011;37855;53.204;6.568;2023-05-23T11:24:13;14.37;;;2.97;;
51800;SDS011;37855;53.204;6.568;2023-05-23T11:26:38;16.33;;;3.20;;
51800;SDS011;37855;53.204;6.568;2023-05-23T11:29:07;17.23;;;3.20;;
51800;SDS011;37855;53.204;6.568;2023-05-23T11:31:37;19.17;;;3.28;;
51800;SDS011;37855;53.204;6.568;2023-05-23T11:34:04;16.10;;;3.83;;
51800;SDS011;37855;53.204;6.568;2023-05-23T11:36:31;10.05;;;2.50;;
51800;SDS011;37855;53.204;6.568;2023-05-23T11:39:01;15.52;;;3.17;;
51800;SDS011;37855;53.204;6.568;2023-05-23T11:41:28;18.43;;;2.97;;
51800;SDS011;37855;53.204;6.568;2023-05-23T11:43:55;13.07;;;2.80;;
51800;SDS011;37855;53.204;6.568;2023-05-23T11:46:20;16.35;;;2.55;;
51800;SDS011;37855;53.204;6.568;2023-05-23T11:48:46;14.93;;;3.13;;
51800;SDS011;37855;53.204;6.568;2023-05-23T11:51:13;13.85;;;2.90;;
51800;SDS011;37855;53.204;6.568;2023-05-23T11:53:40;15.00;;;2.80;;
51800;SDS011;37855;53.204;6.568;2023-05-23T11:56:06;14.32;;;3.00;;
51800;SDS011;37855;53.204;6.568;2023-05-23T11:58:35;15.27;;;2.92;;
51800;SDS011;37855;53.204;6.568;2023-05-23T12:01:08;14.77;;;3.03;;
51800;SDS011;37855;53.204;6.568;2023-05-23T12:06:15;13.05;;;3.10;;
51800;SDS011;37855;53.204;6.568;2023-05-23T12:08:47;14.82;;;3.70;;
51800;SDS011;37855;53.204;6.568;2023-05-23T12:11:13;17.90;;;2.78;;
51800;SDS011;37855;53.204;6.568;2023-05-23T12:13:40;20.40;;;3.10;;
51800;SDS011;37855;53.204;6.568;2023-05-23T12:16:06;13.13;;;2.88;;
51800;SDS011;37855;53.204;6.568;2023-05-23T12:18:32;11.63;;;3.05;;
51800;SDS011;37855;53.204;6.568;2023-05-23T12:21:00;12.73;;;2.33;;
51800;SDS011;37855;53.204;6.568;2023-05-23T12:23:28;17.17;;;2.97;;
51800;SDS011;37855;53.204;6.568;2023-05-23T12:25:54;12.63;;;3.10;;
51800;SDS011;37855;53.204;6.568;2023-05-23T12:28:21;15.63;;;3.38;;
51800;SDS011;37855;53.204;6.568;2023-05-23T12:31:08;15.40;;;3.00;;
51800;SDS011;37855;53.204;6.568;2023-05-23T12:33:36;14.50;;;3.10;;
51800;SDS011;37855;53.204;6.568;2023-05-23T12:36:09;19.33;;;4.22;;
51800;SDS011;37855;53.204;6.568;2023-05-23T12:38:35;15.30;;;3.00;;
51800;SDS011;37855;53.204;6.568;2023-05-23T12:41:08;18.17;;;3.30;;
51800;SDS011;37855;53.204;6.568;2023-05-23T12:43:47;16.95;;;3.10;;
51800;SDS011;37855;53.204;6.568;2023-05-23T12:46:20;14.45;;;2.53;;
51800;SDS011;37855;53.204;6.568;2023-05-23T12:48:47;13.07;;;2.85;;
51800;SDS011;37855;53.204;6.568;2023-05-23T12:51:13;14.50;;;2.93;;
51800;SDS011;37855;53.204;6.568;2023-05-23T12:53:39;16.25;;;2.72;;
51800;SDS011;37855;53.204;6.568;2023-05-23T12:56:05;14.30;;;2.95;;
51800;SDS011;37855;53.204;6.568;2023-05-23T12:58:31;14.40;;;3.00;;
51800;SDS011;37855;53.204;6.568;2023-05-23T13:00:57;16.70;;;3.28;;
51800;SDS011;37855;53.204;6.568;2023-05-23T13:03:23;18.20;;;2.70;;
51800;SDS011;37855;53.204;6.568;2023-05-23T13:05:49;15.40;;;2.80;;
51800;SDS011;37855;53.204;6.568;2023-05-23T13:08:15;10.55;;;2.67;;
51800;SDS011;37855;53.204;6.568;2023-05-23T13:10:42;16.02;;;2.42;;
51800;SDS011;37855;53.204;6.568;2023-05-23T13:13:08;12.07;;;2.43;;
51800;SDS011;37855;53.204;6.568;2023-05-23T13:15:34;14.68;;;2.60;;
51800;SDS011;37855;53.204;6.568;2023-05-23T13:18:00;16.48;;;3.00;;
51800;SDS011;37855;53.204;6.568;2023-05-23T13:20:26;20.23;;;3.13;;
51800;SDS011;37855;53.204;6.568;2023-05-23T13:22:57;12.63;;;3.47;;
51800;SDS011;37855;53.204;6.568;2023-05-23T13:25:23;18.67;;;3.03;;
51800;SDS011;37855;53.204;6.568;2023-05-23T13:27:50;12.50;;;2.45;;
51800;SDS011;37855;53.204;6.568;2023-05-23T13:30:17;14.88;;;2.95;;
51800;SDS011;37855;53.204;6.568;2023-05-23T13:32:46;13.40;;;2.45;;
51800;SDS011;37855;53.204;6.568;2023-05-23T13:35:12;11.10;;;2.43;;
51800;SDS011;37855;53.204;6.568;2023-05-23T13:37:38;12.57;;;2.95;;
51800;SDS011;37855;53.204;6.568;2023-05-23T13:40:04;13.63;;;2.80;;
51800;SDS011;37855;53.204;6.568;2023-05-23T13:42:30;12.60;;;2.70;;
51800;SDS011;37855;53.204;6.568;2023-05-23T13:45:00;14.48;;;2.50;;
51800;SDS011;37855;53.204;6.568;2023-05-23T13:47:32;17.75;;;3.58;;
51800;SDS011;37855;53.204;6.568;2023-05-23T13:50:45;10.23;;;2.70;;
51800;SDS011;37855;53.204;6.568;2023-05-23T13:53:16;12.20;;;2.67;;
51800;SDS011;37855;53.204;6.568;2023-05-23T13:56:01;16.88;;;2.50;;
51800;SDS011;37855;53.204;6.568;2023-05-23T13:58:27;14.25;;;2.90;;
51800;SDS011;37855;53.204;6.568;2023-05-23T14:00:53;12.27;;;2.53;;
51800;SDS011;37855;53.204;6.568;2023-05-23T14:03:19;11.47;;;2.00;;
51800;SDS011;37855;53.204;6.568;2023-05-23T14:05:45;10.35;;;2.13;;
51800;SDS011;37855;53.204;6.568;2023-05-23T14:08:10;15.60;;;2.70;;
51800;SDS011;37855;53.204;6.568;2023-05-23T14:10:38;13.98;;;2.83;;
51800;SDS011;37855;53.204;6.568;2023-05-23T14:13:05;16.08;;;2.72;;
51800;SDS011;37855;53.204;6.568;2023-05-23T14:15:31;14.25;;;2.75;;
51800;SDS011;37855;53.204;6.568;2023-05-23T14:17:57;15.43;;;2.80;;
51800;SDS011;37855;53.204;6.568;2023-05-23T14:20:23;17.67;;;2.73;;
51800;SDS011;37855;53.204;6.568;2023-05-23T14:22:49;18.15;;;2.40;;
51800;SDS011;37855;53.204;6.568;2023-05-23T14:25:16;16.27;;;3.23;;
51800;SDS011;37855;53.204;6.568;2023-05-23T14:27:42;11.80;;;2.42;;
51800;SDS011;37855;53.204;6.568;2023-05-23T14:30:08;15.63;;;2.88;;
51800;SDS011;37855;53.204;6.568;2023-05-23T14:32:34;17.05;;;2.97;;
51800;SDS011;37855;53.204;6.568;2023-05-23T14:35:04;18.67;;;2.60;;
51800;SDS011;37855;53.204;6.568;2023-05-23T14:37:30;14.03;;;2.70;;
51800;SDS011;37855;53.204;6.568;2023-05-23T14:39:56;16.92;;;2.83;;
51800;SDS011;37855;53.204;6.568;2023-05-23T14:42:21;12.97;;;2.63;;
51800;SDS011;37855;53.204;6.568;2023-05-23T14:44:47;15.55;;;2.45;;
51800;SDS011;37855;53.204;6.568;2023-05-23T14:47:13;17.03;;;2.70;;
51800;SDS011;37855;53.204;6.568;2023-05-23T14:49:39;12.80;;;2.40;;
51800;SDS011;37855;53.204;6.568;2023-05-23T14:52:05;14.37;;;2.03;;
51800;SDS011;37855;53.204;6.568;2023-05-23T14:54:31;11.88;;;2.60;;
51800;SDS011;37855;53.204;6.568;2023-05-23T14:56:57;12.05;;;2.22;;
51800;SDS011;37855;53.204;6.568;2023-05-23T14:59:22;16.33;;;3.10;;
51800;SDS011;37855;53.204;6.568;2023-05-23T15:01:48;15.38;;;2.80;;
51800;SDS011;37855;53.204;6.568;2023-05-23T15:04:14;14.33;;;2.77;;
51800;SDS011;37855;53.204;6.568;2023-05-23T15:06:40;16.70;;;2.65;;
51800;SDS011;37855;53.204;6.568;2023-05-23T15:09:06;14.25;;;2.70;;
51800;SDS011;37855;53.204;6.568;2023-05-23T15:11:33;10.17;;;3.27;;
51800;SDS011;37855;53.204;6.568;2023-05-23T15:14:00;18.40;;;3.13;;
51800;SDS011;37855;53.204;6.568;2023-05-23T15:16:26;12.90;;;2.45;;
51800;SDS011;37855;53.204;6.568;2023-05-23T15:18:56;16.20;;;2.43;;